New Hampton, NH

5:05 AM EDT on August 31, 2015 (GMT -0400)
New Hampton Nh | | Change Station
CLOSE
Current Station
Personal Weather Station
Location: New Hampton, NH
Elevation: 539 ft
Nearby Weather Stations

Elev 539 ft 43.62 °N, 71.64 °W | Updated 2 minutes ago

Partly Cloudy
Partly Cloudy
57.4 °F
Feels Like 57.4 °F
N
0.0
Wind Variable Wind from WSW
Gusts 0.0 mph

Today
High -- | Low -- °F
--% Chance of Precip.
Yesterday
High -- | Low -- °F
Precip. -- in
6:08 AM 7:24 PM
Waning Gibbous, 96% visible
Pressure 29.97 in
Visibility 0.2 miles
Clouds Overcast 100 ft
Dew Point 56 °F
Humidity 96%
Rainfall in
Snow Depth Not available.
UV 0 out of 12
Pollen 8.10 out of 12
Air Quality Not available.
Flu Activity Not available.
METAR K1P1 310855Z AUTO 00000KT 1/4SM FG OVC001 13/13 A2997 RMK AO2 T01310126
Pressure 29.97 in
Visibility 0.2 miles
Clouds Overcast 100 ft
Dew Point 56 °F
Humidity 96%
Rainfall in
Snow Depth Not available.
UV 0 out of 12
Pollen 8.10 out of 12
Air Quality Not available.
Flu Activity Not available.
METAR K1P1 310855Z AUTO 00000KT 1/4SM FG OVC001 13/13 A2997 RMK AO2 T01310126

10-Day Weather Forecast

×

Almanac

Astronomy

Aug. 31, 2015 Rise Set
Actual Time
Civil Twilight
Nautical Twilight
Astronomical Twilight
Moon
Length of Visible Light
Length of Day
Tomorrow will be .
, % of the Moon is Illuminated

Today's Extremes

State Highs State Lows

Community

WunderPhotos

Upload Photos

1,851,227 photos uploaded!

WunderBlogs® & News

Nearby

Air Quality

  Air Quality AQ Index Pollutant
Not available.

Snow Depth

Station Depth Elevation

Earthquake Activity

City Distance Mag. Time & Date
Minimum magnitude displayed is 2.5.

Coastal Water Temperatures

Place Temperature

Stations

Nearby Weather Stations

Station Location Temp. Windchill Dew Point Humidity Wind Precip. Elev Updated Type